Time;durP1;ratioP1;P1;durP2;ratioP2;P2;SDS_P1;SDS_P2;PMS_P1;PMS_P2;Temp;Humidity;BMP_temperature;BMP_pressure;BME280_temperature;BME280_humidity;BME280_pressure;Samples;Min_cycle;Max_cycle;Signal;HPM_P1;HPM_P2
2022/04/07 00:02:15;;;;;;;;;45.50;36.25;;;;;;;;5084765;27;51169;-48
2022/04/07 00:05:00;;;;;;;;;44.25;35.75;;;;;;;;5084499;27;51190;-49
2022/04/07 00:07:50;;;;;;;;;44.25;34.75;;;;;;;;5080189;27;51540;-48
2022/04/07 00:10:48;;;;;;;;;37.00;32.00;;;;;;;;5084308;27;51121;-51
2022/04/07 00:13:33;;;;;;;;;41.50;31.50;;;;;;;;5080522;27;51027;-51
2022/04/07 00:16:18;;;;;;;;;46.00;33.75;;;;;;;;5080118;27;51142;-51
2022/04/07 00:19:05;;;;;;;;;41.00;33.50;;;;;;;;5079118;27;51176;-47
2022/04/07 00:21:49;;;;;;;;;35.75;31.50;;;;;;;;5099604;27;51243;-48
2022/04/07 00:25:00;;;;;;;;;41.75;32.00;;;;;;;;5089074;27;51212;-49
2022/04/07 00:27:44;;;;;;;;;38.50;30.75;;;;;;;;5082094;27;52439;-49
2022/04/07 00:30:30;;;;;;;;;39.50;31.25;;;;;;;;5084114;27;51219;-49
2022/04/07 00:33:15;;;;;;;;;42.75;32.00;;;;;;;;5095659;27;51244;-48
2022/04/07 00:36:03;;;;;;;;;42.50;33.75;;;;;;;;5083190;27;51298;-51
2022/04/07 00:38:49;;;;;;;;;41.25;31.75;;;;;;;;5085341;27;51493;-51
2022/04/07 00:41:37;;;;;;;;;40.50;32.75;;;;;;;;5093163;27;51100;-51
2022/04/07 00:44:24;;;;;;;;;35.00;30.25;;;;;;;;5088172;27;51129;-50
2022/04/07 00:47:09;;;;;;;;;37.50;32.00;;;;;;;;5088478;27;51506;-52
2022/04/07 00:49:53;;;;;;;;;37.25;30.25;;;;;;;;5088271;27;51065;-48
2022/04/07 00:52:41;;;;;;;;;35.00;28.25;;;;;;;;5095740;27;51167;-48
2022/04/07 00:55:25;;;;;;;;;37.75;27.50;;;;;;;;5083871;27;51215;-52
2022/04/07 00:58:12;;;;;;;;;33.50;26.75;;;;;;;;5079541;27;51094;-50
2022/04/07 01:01:08;;;;;;;;;19.25;16.75;;;;;;;;5071866;27;51094;-47
2022/04/07 01:03:54;;;;;;;;;30.00;27.75;;;;;;;;5087616;27;51541;-47
2022/04/07 01:06:41;;;;;;;;;37.75;28.25;;;;;;;;5081675;27;51088;-51
2022/04/07 01:09:26;;;;;;;;;30.75;26.00;;;;;;;;5090776;27;51282;-51
2022/04/07 01:12:11;;;;;;;;;27.00;23.00;;;;;;;;5081442;27;51459;-47
2022/04/07 01:15:00;;;;;;;;;28.25;20.00;;;;;;;;5094103;27;51213;-49
2022/04/07 01:17:56;;;;;;;;;29.75;25.75;;;;;;;;5098403;27;51248;-47
2022/04/07 01:20:41;;;;;;;;;27.50;24.25;;;;;;;;5090330;27;51029;-47
2022/04/07 01:23:32;;;;;;;;;32.00;22.50;;;;;;;;5095781;27;51002;-47
2022/04/07 01:26:17;;;;;;;;;23.25;21.75;;;;;;;;5092787;27;51464;-48
2022/04/07 01:29:05;;;;;;;;;24.00;22.00;;;;;;;;5080980;27;51607;-49
2022/04/07 01:32:07;;;;;;;;;25.75;21.75;;;;;;;;5096717;27;51116;-52
2022/04/07 01:34:53;;;;;;;;;29.75;24.50;;;;;;;;5036759;27;51324;-47
2022/04/07 01:37:38;;;;;;;;;32.75;23.50;;;;;;;;5095413;27;51463;-47
2022/04/07 01:40:33;;;;;;;;;21.50;19.50;;;;;;;;5086486;27;51184;-49
2022/04/07 01:43:18;;;;;;;;;27.50;22.50;;;;;;;;5061643;27;51260;-49
2022/04/07 01:46:13;;;;;;;;;30.25;22.25;;;;;;;;5088135;27;51463;-53
2022/04/07 01:48:58;;;;;;;;;26.75;22.25;;;;;;;;5079905;27;51462;-52
2022/04/07 01:51:44;;;;;;;;;24.00;19.50;;;;;;;;5084034;27;51082;-48
2022/04/07 01:54:29;;;;;;;;;28.50;20.00;;;;;;;;5082013;27;51112;-50
2022/04/07 01:57:16;;;;;;;;;29.00;23.00;;;;;;;;5068750;27;51245;-48
2022/04/07 02:00:07;;;;;;;;;25.00;20.00;;;;;;;;5098021;27;51125;-49
2022/04/07 02:02:52;;;;;;;;;22.00;18.00;;;;;;;;5084276;27;51477;-50
2022/04/07 02:05:39;;;;;;;;;24.25;20.75;;;;;;;;5070570;27;51662;-49
2022/04/07 02:08:25;;;;;;;;;23.00;21.50;;;;;;;;5103724;27;51051;-46
2022/04/07 02:11:22;;;;;;;;;21.25;18.25;;;;;;;;5103945;27;51085;-50
2022/04/07 02:14:10;;;;;;;;;18.50;18.50;;;;;;;;5102073;27;51421;-49
2022/04/07 02:16:58;;;;;;;;;25.00;21.75;;;;;;;;5093823;27;51385;-52
2022/04/07 02:19:44;;;;;;;;;25.25;20.50;;;;;;;;5090018;27;51164;-52
2022/04/07 02:22:39;;;;;;;;;23.00;19.25;;;;;;;;5088988;27;51097;-49
2022/04/07 02:25:46;;;;;;;;;26.00;19.00;;;;;;;;5090876;27;51172;-49
2022/04/07 02:28:32;;;;;;;;;21.00;20.25;;;;;;;;5094714;27;51211;-49
2022/04/07 02:31:17;;;;;;;;;20.25;17.50;;;;;;;;5083604;27;51808;-52
2022/04/07 02:34:02;;;;;;;;;21.00;20.25;;;;;;;;5088111;27;51142;-50
2022/04/07 02:36:48;;;;;;;;;25.00;19.50;;;;;;;;5087983;27;51216;-49
2022/04/07 02:39:35;;;;;;;;;23.25;19.25;;;;;;;;5093993;27;51285;-51
2022/04/07 02:42:22;;;;;;;;;29.50;21.50;;;;;;;;5079772;27;51314;-51
2022/04/07 02:45:06;;;;;;;;;22.50;18.75;;;;;;;;5080872;27;51380;-48
2022/04/07 02:47:51;;;;;;;;;22.75;17.75;;;;;;;;5085876;27;51038;-48
2022/04/07 02:50:39;;;;;;;;;21.25;17.75;;;;;;;;5077804;27;50985;-46
2022/04/07 02:53:25;;;;;;;;;23.50;18.25;;;;;;;;5090142;27;52254;-52
2022/04/07 02:56:08;;;;;;;;;23.75;19.00;;;;;;;;5094564;27;51005;-46
2022/04/07 02:58:54;;;;;;;;;21.75;17.25;;;;;;;;5094453;27;51164;-49
2022/04/07 03:01:43;;;;;;;;;24.25;16.25;;;;;;;;5082034;27;51153;-50
2022/04/07 03:04:37;;;;;;;;;26.25;19.75;;;;;;;;5082403;27;51284;-52
2022/04/07 03:07:23;;;;;;;;;30.50;23.00;;;;;;;;5100249;27;51031;-49
2022/04/07 03:10:11;;;;;;;;;22.75;20.25;;;;;;;;5089043;27;51202;-51
2022/04/07 03:13:06;;;;;;;;;20.00;19.00;;;;;;;;5081945;27;50995;-47
2022/04/07 03:15:51;;;;;;;;;24.75;20.50;;;;;;;;5076771;27;51216;-51
2022/04/07 03:18:36;;;;;;;;;22.75;19.25;;;;;;;;5082176;27;51226;-48
2022/04/07 03:21:21;;;;;;;;;26.50;21.50;;;;;;;;5086881;27;51521;-49
2022/04/07 03:24:08;;;;;;;;;20.75;16.25;;;;;;;;5100538;27;51184;-48
2022/04/07 03:26:53;;;;;;;;;24.25;17.00;;;;;;;;5100976;27;51103;-49
2022/04/07 03:29:38;;;;;;;;;20.75;17.50;;;;;;;;5073526;27;51506;-50
2022/04/07 03:32:24;;;;;;;;;27.50;19.25;;;;;;;;5092716;27;51097;-46
2022/04/07 03:35:39;;;;;;;;;18.50;15.75;;;;;;;;5076806;27;51228;-49
2022/04/07 03:38:24;;;;;;;;;19.50;18.75;;;;;;;;5081675;27;51411;-49
2022/04/07 03:41:09;;;;;;;;;19.75;17.50;;;;;;;;5075313;27;51541;-51
2022/04/07 03:43:54;;;;;;;;;20.50;17.25;;;;;;;;5098528;27;51211;-50
2022/04/07 03:46:38;;;;;;;;;25.00;22.00;;;;;;;;5089136;27;51560;-49
2022/04/07 03:49:22;;;;;;;;;20.75;20.00;;;;;;;;5098182;27;51048;-49
2022/04/07 03:52:08;;;;;;;;;25.75;22.25;;;;;;;;5086138;27;51113;-48
2022/04/07 03:54:53;;;;;;;;;22.75;19.75;;;;;;;;5085710;27;51283;-47
2022/04/07 03:57:39;;;;;;;;;23.50;20.75;;;;;;;;5083519;27;51286;-50
2022/04/07 04:00:32;;;;;;;;;28.75;19.75;;;;;;;;5083862;27;51335;-47
2022/04/07 04:03:25;;;;;;;;;26.00;22.50;;;;;;;;5085597;27;51541;-48
2022/04/07 04:06:24;;;;;;;;;23.50;20.75;;;;;;;;5096136;27;51106;-49
2022/04/07 04:09:11;;;;;;;;;27.50;24.25;;;;;;;;5099840;27;51167;-49
2022/04/07 04:12:00;;;;;;;;;30.50;25.75;;;;;;;;5089704;27;51166;-49
2022/04/07 04:14:46;;;;;;;;;27.00;24.00;;;;;;;;5083023;27;51141;-49
2022/04/07 04:17:41;;;;;;;;;31.75;27.00;;;;;;;;5081036;27;51181;-49
2022/04/07 04:20:25;;;;;;;;;31.75;25.25;;;;;;;;5093340;27;51397;-49
2022/04/07 04:23:11;;;;;;;;;32.75;25.00;;;;;;;;5094642;27;51142;-48
2022/04/07 04:25:57;;;;;;;;;28.75;22.25;;;;;;;;5080277;27;51167;-50
2022/04/07 04:28:44;;;;;;;;;23.25;20.75;;;;;;;;5085963;27;51256;-49
2022/04/07 04:31:29;;;;;;;;;29.50;22.75;;;;;;;;5088949;27;51226;-48
2022/04/07 04:34:20;;;;;;;;;23.25;20.00;;;;;;;;5080505;27;52349;-47
2022/04/07 04:37:13;;;;;;;;;26.25;23.00;;;;;;;;5080391;27;51621;-47
2022/04/07 04:39:57;;;;;;;;;30.00;26.25;;;;;;;;5075183;27;51533;-47
2022/04/07 04:42:43;;;;;;;;;25.25;23.75;;;;;;;;5077288;27;51196;-49
2022/04/07 04:45:28;;;;;;;;;27.75;24.75;;;;;;;;5082386;27;51702;-47
2022/04/07 04:48:38;;;;;;;;;26.25;25.25;;;;;;;;5085412;27;51110;-47
2022/04/07 04:51:25;;;;;;;;;30.75;26.00;;;;;;;;5083583;27;51496;-47
2022/04/07 04:54:13;;;;;;;;;31.00;26.25;;;;;;;;5080912;27;51077;-50
2022/04/07 04:56:58;;;;;;;;;30.75;24.75;;;;;;;;5088378;27;51958;-47
2022/04/07 04:59:43;;;;;;;;;27.25;25.75;;;;;;;;5087742;27;51062;-48
2022/04/07 05:02:32;;;;;;;;;29.25;24.50;;;;;;;;5082172;27;51148;-50
2022/04/07 05:05:17;;;;;;;;;27.25;25.25;;;;;;;;5087554;27;51200;-48
2022/04/07 05:08:24;;;;;;;;;26.75;22.50;;;;;;;;5088998;27;51091;-49
2022/04/07 05:11:08;;;;;;;;;32.50;26.25;;;;;;;;5088979;27;51077;-48
2022/04/07 05:13:54;;;;;;;;;36.00;28.25;;;;;;;;5080370;27;51178;-50
2022/04/07 05:16:41;;;;;;;;;31.50;25.75;;;;;;;;5091760;27;51619;-47
2022/04/07 05:19:38;;;;;;;;;36.00;28.50;;;;;;;;5086672;27;51006;-51
2022/04/07 05:22:22;;;;;;;;;33.50;29.00;;;;;;;;5079015;27;51133;-46
2022/04/07 05:25:10;;;;;;;;;28.25;26.00;;;;;;;;5099158;27;51101;-48
2022/04/07 05:27:55;;;;;;;;;33.25;23.25;;;;;;;;5082933;27;51460;-48
2022/04/07 05:30:39;;;;;;;;;26.00;26.00;;;;;;;;5084834;27;51180;-51
2022/04/07 05:33:25;;;;;;;;;34.75;28.25;;;;;;;;5082627;27;51066;-51
2022/04/07 05:36:10;;;;;;;;;36.75;30.75;;;;;;;;5090851;27;51079;-52
2022/04/07 05:39:06;;;;;;;;;44.00;33.00;;;;;;;;5095997;27;51188;-52
2022/04/07 05:41:52;;;;;;;;;38.50;32.00;;;;;;;;5082726;27;52417;-50
2022/04/07 05:44:38;;;;;;;;;41.00;34.50;;;;;;;;5083199;27;51179;-49
2022/04/07 05:47:27;;;;;;;;;48.25;36.50;;;;;;;;5085625;27;51356;-48
2022/04/07 05:50:13;;;;;;;;;47.25;37.50;;;;;;;;5082354;27;51332;-49
2022/04/07 05:53:03;;;;;;;;;54.25;43.75;;;;;;;;5093803;27;51745;-49
2022/04/07 05:55:47;;;;;;;;;62.75;46.00;;;;;;;;5091654;27;51062;-48
2022/04/07 05:58:32;;;;;;;;;69.00;53.00;;;;;;;;5096442;27;51000;-49
2022/04/07 06:01:17;;;;;;;;;71.75;59.75;;;;;;;;5092890;27;53085;-47
2022/04/07 06:04:04;;;;;;;;;70.75;53.75;;;;;;;;5092197;27;51099;-46
2022/04/07 06:06:51;;;;;;;;;63.75;48.50;;;;;;;;5090487;27;51619;-48
2022/04/07 06:09:43;;;;;;;;;54.75;41.00;;;;;;;;5082376;27;51145;-49
2022/04/07 06:12:28;;;;;;;;;58.25;43.75;;;;;;;;5094681;27;51409;-52
2022/04/07 06:15:13;;;;;;;;;49.25;39.00;;;;;;;;5093434;27;51117;-47
2022/04/07 06:18:01;;;;;;;;;53.50;41.25;;;;;;;;5087727;27;51074;-51
2022/04/07 06:20:47;;;;;;;;;48.00;37.25;;;;;;;;5083870;27;51153;-48
2022/04/07 06:23:32;;;;;;;;;54.50;42.75;;;;;;;;5085935;27;51517;-48
2022/04/07 06:26:18;;;;;;;;;52.00;40.25;;;;;;;;5095123;27;51128;-48
2022/04/07 06:29:09;;;;;;;;;56.25;45.00;;;;;;;;5088968;27;50994;-49
2022/04/07 06:31:53;;;;;;;;;56.50;45.00;;;;;;;;5083575;27;51677;-49
2022/04/07 06:34:37;;;;;;;;;60.25;47.50;;;;;;;;5082052;27;51121;-47
2022/04/07 06:37:45;;;;;;;;;63.25;48.50;;;;;;;;5082314;27;51486;-48
2022/04/07 06:40:31;;;;;;;;;62.00;46.50;;;;;;;;5095887;27;51259;-47
2022/04/07 06:43:15;;;;;;;;;58.25;46.25;;;;;;;;5088380;27;51591;-48
2022/04/07 06:46:06;;;;;;;;;60.25;46.00;;;;;;;;5097655;27;51095;-50
2022/04/07 06:48:54;;;;;;;;;63.25;47.00;;;;;;;;5098129;27;50933;-48
2022/04/07 06:51:41;;;;;;;;;61.75;47.50;;;;;;;;5081931;27;51117;-51
2022/04/07 06:54:37;;;;;;;;;62.00;48.25;;;;;;;;5082249;27;51140;-54
2022/04/07 06:57:33;;;;;;;;;54.75;43.75;;;;;;;;5087890;27;51557;-56
2022/04/07 07:00:18;;;;;;;;;54.50;43.75;;;;;;;;5101598;27;51086;-55
2022/04/07 07:03:03;;;;;;;;;51.00;37.75;;;;;;;;5101024;27;51175;-53
2022/04/07 07:05:49;;;;;;;;;59.25;44.25;;;;;;;;5096683;27;51311;-55
2022/04/07 07:08:34;;;;;;;;;60.50;47.25;;;;;;;;5099263;27;51051;-56
2022/04/07 07:11:20;;;;;;;;;58.25;46.25;;;;;;;;5100206;27;52204;-54
2022/04/07 07:14:05;;;;;;;;;60.00;45.25;;;;;;;;5082073;27;51045;-49
2022/04/07 07:16:49;;;;;;;;;62.25;48.50;;;;;;;;5102579;27;51461;-52
2022/04/07 07:19:37;;;;;;;;;60.50;47.50;;;;;;;;5089507;27;51152;-53
2022/04/07 07:22:23;;;;;;;;;57.00;43.75;;;;;;;;5080657;27;51109;-55
2022/04/07 07:25:20;;;;;;;;;51.25;40.75;;;;;;;;5083365;27;51202;-55
2022/04/07 07:28:06;;;;;;;;;59.50;43.75;;;;;;;;5097073;27;51397;-53
2022/04/07 07:30:53;;;;;;;;;52.75;40.00;;;;;;;;5081530;27;51145;-55
2022/04/07 07:33:48;;;;;;;;;58.50;41.00;;;;;;;;5080663;27;51650;-54
2022/04/07 07:36:35;;;;;;;;;58.00;43.00;;;;;;;;5081902;27;51256;-55
2022/04/07 07:39:20;;;;;;;;;50.75;39.75;;;;;;;;5083782;27;51494;-54
2022/04/07 07:42:04;;;;;;;;;49.50;37.00;;;;;;;;5098771;27;51130;-56
2022/04/07 07:44:49;;;;;;;;;43.75;33.00;;;;;;;;5083244;27;51156;-55
2022/04/07 07:47:37;;;;;;;;;38.75;30.00;;;;;;;;5088855;27;51449;-54
2022/04/07 07:50:21;;;;;;;;;31.00;26.75;;;;;;;;5073123;27;51279;-53
2022/04/07 07:53:09;;;;;;;;;39.50;28.50;;;;;;;;5086682;27;51225;-54
2022/04/07 07:56:09;;;;;;;;;30.50;25.50;;;;;;;;5081568;27;51183;-54
2022/04/07 07:58:56;;;;;;;;;27.00;23.75;;;;;;;;5085043;27;51167;-52
2022/04/07 08:01:48;;;;;;;;;36.25;30.00;;;;;;;;5074566;27;51109;-49
2022/04/07 08:04:38;;;;;;;;;29.75;22.50;;;;;;;;5089776;27;51119;-50
2022/04/07 08:07:23;;;;;;;;;32.00;24.50;;;;;;;;5100027;27;51570;-54
2022/04/07 08:10:09;;;;;;;;;32.25;23.75;;;;;;;;5087810;27;51243;-51
2022/04/07 08:12:55;;;;;;;;;31.25;21.25;;;;;;;;5081632;27;51033;-52
2022/04/07 08:15:42;;;;;;;;;22.00;21.75;;;;;;;;5089110;27;51172;-52
2022/04/07 08:18:27;;;;;;;;;30.50;22.50;;;;;;;;5095705;27;51108;-58
2022/04/07 08:21:11;;;;;;;;;27.25;19.25;;;;;;;;5074000;27;51662;-53
2022/04/07 08:23:56;;;;;;;;;28.75;23.75;;;;;;;;5065307;27;51568;-52
2022/04/07 08:26:41;;;;;;;;;26.00;21.50;;;;;;;;5077430;27;51371;-55
2022/04/07 08:29:25;;;;;;;;;26.50;21.25;;;;;;;;5089952;27;51477;-52
2022/04/07 08:32:10;;;;;;;;;25.50;21.25;;;;;;;;5069225;27;51179;-52
2022/04/07 08:34:56;;;;;;;;;37.25;20.75;;;;;;;;5083339;27;51091;-50
2022/04/07 08:37:43;;;;;;;;;29.00;20.50;;;;;;;;5095695;27;51256;-54
2022/04/07 08:40:33;;;;;;;;;17.00;12.50;;;;;;;;5096270;27;51064;-52
2022/04/07 08:43:18;;;;;;;;;22.00;20.00;;;;;;;;5074989;27;51630;-54
2022/04/07 08:46:05;;;;;;;;;25.75;17.75;;;;;;;;5072988;27;51575;-54
2022/04/07 08:48:52;;;;;;;;;24.00;21.25;;;;;;;;5075677;27;51218;-54
2022/04/07 08:51:47;;;;;;;;;21.50;18.50;;;;;;;;5095364;27;51117;-50
2022/04/07 08:54:35;;;;;;;;;17.00;15.75;;;;;;;;5081926;27;51164;-55
2022/04/07 08:57:40;;;;;;;;;23.50;18.75;;;;;;;;5073279;27;51798;-52
2022/04/07 09:00:26;;;;;;;;;21.75;17.50;;;;;;;;5084062;27;51114;-53
2022/04/07 09:03:11;;;;;;;;;16.00;16.00;;;;;;;;5074072;27;50972;-54
2022/04/07 09:05:57;;;;;;;;;15.25;13.00;;;;;;;;5079808;27;51220;-51
2022/04/07 09:08:45;;;;;;;;;10.25;9.75;;;;;;;;5077641;27;51573;-54
2022/04/07 09:11:29;;;;;;;;;12.75;9.50;;;;;;;;5076732;27;51199;-55
2022/04/07 09:14:17;;;;;;;;;11.25;8.75;;;;;;;;5075401;27;51271;-51
2022/04/07 09:17:09;;;;;;;;;14.25;11.00;;;;;;;;5076936;27;51081;-50
2022/04/07 09:19:55;;;;;;;;;12.75;9.00;;;;;;;;5063498;27;51263;-52
2022/04/07 09:22:40;;;;;;;;;9.75;6.75;;;;;;;;5078240;27;51084;-53
2022/04/07 09:25:35;;;;;;;;;7.75;7.25;;;;;;;;5090647;27;51365;-51
2022/04/07 09:28:26;;;;;;;;;11.50;9.75;;;;;;;;5092073;27;51588;-50
2022/04/07 09:31:20;;;;;;;;;10.25;5.25;;;;;;;;5080031;27;51545;-52
2022/04/07 09:34:05;;;;;;;;;7.75;5.50;;;;;;;;5090539;27;51437;-51
2022/04/07 09:37:02;;;;;;;;;6.25;5.00;;;;;;;;5053303;27;51606;-52
2022/04/07 09:40:07;;;;;;;;;6.25;3.25;;;;;;;;5077943;27;51220;-51
2022/04/07 09:42:58;;;;;;;;;4.50;3.50;;;;;;;;5077263;27;51779;-54
2022/04/07 09:46:14;;;;;;;;;6.75;4.00;;;;;;;;5087799;27;51326;-52
2022/04/07 09:49:03;;;;;;;;;4.50;2.75;;;;;;;;5077513;27;51284;-54
2022/04/07 09:51:52;;;;;;;;;5.25;4.25;;;;;;;;5092646;27;51243;-55
2022/04/07 09:54:38;;;;;;;;;4.75;4.00;;;;;;;;5074236;27;51312;-53
2022/04/07 09:57:26;;;;;;;;;5.25;5.00;;;;;;;;5093698;27;51485;-53
2022/04/07 10:00:13;;;;;;;;;5.75;4.00;;;;;;;;5065316;27;51453;-53
2022/04/07 10:03:08;;;;;;;;;5.75;4.00;;;;;;;;5095507;27;51505;-50
2022/04/07 10:05:54;;;;;;;;;3.00;3.00;;;;;;;;5076961;27;52407;-50
2022/04/07 10:08:39;;;;;;;;;8.00;4.75;;;;;;;;5092319;27;51248;-51
2022/04/07 10:11:23;;;;;;;;;3.75;3.25;;;;;;;;5080050;27;51159;-53
2022/04/07 10:14:11;;;;;;;;;4.25;3.25;;;;;;;;5094383;27;51391;-54
2022/04/07 10:16:59;;;;;;;;;6.75;4.25;;;;;;;;5073958;27;51161;-53
2022/04/07 10:20:03;;;;;;;;;6.75;5.50;;;;;;;;5083696;27;51199;-51
2022/04/07 10:23:06;;;;;;;;;3.50;3.50;;;;;;;;5080065;27;51169;-55
2022/04/07 10:26:04;;;;;;;;;8.75;3.25;;;;;;;;5090577;27;51224;-50
2022/04/07 10:28:58;;;;;;;;;8.00;4.00;;;;;;;;5101142;27;51267;-51
2022/04/07 10:32:05;;;;;;;;;2.50;0.00;;;;;;;;5087953;27;51044;-54
2022/04/07 10:35:13;;;;;;;;;8.25;2.50;;;;;;;;5085891;27;51258;-51
2022/04/07 10:38:21;;;;;;;;;6.50;2.50;;;;;;;;5082906;27;51180;-53
2022/04/07 10:41:05;;;;;;;;;6.00;4.50;;;;;;;;5086510;27;51524;-54
2022/04/07 10:44:06;;;;;;;;;6.50;4.25;;;;;;;;5089427;27;51610;-53
2022/04/07 10:47:02;;;;;;;;;8.75;4.50;;;;;;;;5088308;27;51171;-52
2022/04/07 10:49:51;;;;;;;;;9.00;5.75;;;;;;;;5085391;27;51192;-55
2022/04/07 10:52:39;;;;;;;;;6.25;4.25;;;;;;;;5084236;27;51462;-53
2022/04/07 10:55:26;;;;;;;;;3.75;1.75;;;;;;;;5085092;27;51134;-52
2022/04/07 10:58:41;;;;;;;;;5.00;3.00;;;;;;;;5083437;27;51639;-51
2022/04/07 11:01:29;;;;;;;;;8.75;5.50;;;;;;;;5087956;27;51256;-50
2022/04/07 11:04:17;;;;;;;;;6.75;3.00;;;;;;;;5084517;27;51166;-50
2022/04/07 11:07:20;;;;;;;;;4.75;4.00;;;;;;;;5083742;27;51070;-49
2022/04/07 11:10:11;;;;;;;;;10.00;6.00;;;;;;;;5085481;27;51148;-53
2022/04/07 11:13:02;;;;;;;;;6.00;3.75;;;;;;;;5085340;27;51121;-53
2022/04/07 11:16:00;;;;;;;;;6.75;5.75;;;;;;;;5084475;27;51486;-52
2022/04/07 11:18:55;;;;;;;;;9.50;4.50;;;;;;;;5074406;27;51876;-52
2022/04/07 11:21:50;;;;;;;;;5.00;4.00;;;;;;;;5067838;27;51548;-53
2022/04/07 11:24:44;;;;;;;;;8.00;3.75;;;;;;;;5086902;27;51149;-55
2022/04/07 11:27:35;;;;;;;;;7.00;4.75;;;;;;;;5081066;27;51396;-54
2022/04/07 11:30:20;;;;;;;;;3.00;0.00;;;;;;;;5083802;27;51179;-50
2022/04/07 11:33:32;;;;;;;;;7.75;5.75;;;;;;;;5083507;27;51210;-50
2022/04/07 11:36:42;;;;;;;;;9.75;5.25;;;;;;;;5081976;27;51527;-55
2022/04/07 11:39:27;;;;;;;;;5.75;4.25;;;;;;;;5081559;27;51086;-52
2022/04/07 11:42:17;;;;;;;;;12.75;7.00;;;;;;;;5098767;27;51441;-51
2022/04/07 11:45:03;;;;;;;;;7.25;5.00;;;;;;;;5090036;27;51181;-53
2022/04/07 11:47:49;;;;;;;;;8.25;5.00;;;;;;;;5081330;27;51195;-53
2022/04/07 11:50:34;;;;;;;;;9.00;4.50;;;;;;;;5090173;27;51162;-55
2022/04/07 11:53:19;;;;;;;;;7.00;4.75;;;;;;;;5086029;27;51191;-56
2022/04/07 11:56:25;;;;;;;;;6.50;5.25;;;;;;;;5070394;27;51205;-51
2022/04/07 11:59:10;;;;;;;;;7.25;5.00;;;;;;;;5094854;27;51539;-52
2022/04/07 12:01:59;;;;;;;;;5.75;4.75;;;;;;;;5082002;27;51428;-55
2022/04/07 12:04:44;;;;;;;;;6.75;5.00;;;;;;;;5095895;27;51271;-56
2022/04/07 12:07:35;;;;;;;;;10.50;5.25;;;;;;;;5081258;27;51102;-54
2022/04/07 12:10:20;;;;;;;;;8.50;5.50;;;;;;;;5072605;27;51065;-54
2022/04/07 12:13:07;;;;;;;;;7.00;4.00;;;;;;;;5086202;27;51097;-52
2022/04/07 12:15:51;;;;;;;;;10.75;5.25;;;;;;;;5085676;27;51374;-47
2022/04/07 12:18:38;;;;;;;;;11.00;7.25;;;;;;;;5100662;27;51123;-49
2022/04/07 12:21:23;;;;;;;;;11.75;7.75;;;;;;;;5067531;27;51024;-48
2022/04/07 12:24:13;;;;;;;;;15.75;9.00;;;;;;;;5079791;27;51537;-49
2022/04/07 12:27:00;;;;;;;;;5.75;4.00;;;;;;;;5090416;27;51351;-47
2022/04/07 12:29:48;;;;;;;;;8.00;3.00;;;;;;;;5079673;27;51259;-48
2022/04/07 12:32:44;;;;;;;;;9.00;4.00;;;;;;;;5084490;27;51194;-48
2022/04/07 12:35:45;;;;;;;;;8.00;5.00;;;;;;;;5068849;27;51547;-48
2022/04/07 12:38:29;;;;;;;;;6.50;4.00;;;;;;;;5085790;27;51127;-48
2022/04/07 12:41:16;;;;;;;;;6.00;5.50;;;;;;;;5080031;27;51571;-48
2022/04/07 12:44:02;;;;;;;;;6.25;5.00;;;;;;;;5079015;27;51137;-50
2022/04/07 12:46:50;;;;;;;;;8.00;4.50;;;;;;;;5080515;27;51059;-48
2022/04/07 12:49:38;;;;;;;;;10.50;6.00;;;;;;;;5096825;27;51405;-48
2022/04/07 12:52:33;;;;;;;;;8.25;7.25;;;;;;;;5087248;27;53162;-50
2022/04/07 12:55:21;;;;;;;;;17.25;10.50;;;;;;;;5078925;27;51344;-50
2022/04/07 12:58:06;;;;;;;;;14.50;11.00;;;;;;;;5083362;27;51130;-47
2022/04/07 13:00:59;;;;;;;;;2.75;0.00;;;;;;;;5079561;27;51193;-48
2022/04/07 13:03:51;;;;;;;;;15.00;8.00;;;;;;;;5079397;27;51209;-47
2022/04/07 13:06:49;;;;;;;;;7.50;5.50;;;;;;;;5079185;27;51125;-47
2022/04/07 13:09:54;;;;;;;;;8.50;4.00;;;;;;;;5099433;27;50998;-48
2022/04/07 13:12:38;;;;;;;;;6.25;4.00;;;;;;;;5080345;27;51038;-48
2022/04/07 13:15:25;;;;;;;;;6.25;5.25;;;;;;;;5099408;27;51416;-49
2022/04/07 13:18:10;;;;;;;;;10.00;6.75;;;;;;;;5098171;27;51427;-51
2022/04/07 13:21:20;;;;;;;;;8.00;4.00;;;;;;;;5097613;27;51144;-52
2022/04/07 13:24:30;;;;;;;;;5.00;4.00;;;;;;;;5099144;27;51076;-46
2022/04/07 13:27:17;;;;;;;;;2.75;2.75;;;;;;;;5092104;27;51378;-49
2022/04/07 13:30:06;;;;;;;;;6.00;4.00;;;;;;;;5063350;27;51159;-48
2022/04/07 13:32:54;;;;;;;;;7.50;4.00;;;;;;;;5098743;27;51096;-47
2022/04/07 13:35:41;;;;;;;;;7.25;4.25;;;;;;;;5090882;27;51295;-49
2022/04/07 13:38:31;;;;;;;;;7.75;5.00;;;;;;;;5099530;27;50977;-47
2022/04/07 13:41:17;;;;;;;;;5.50;5.00;;;;;;;;5096326;27;51411;-46
2022/04/07 13:44:02;;;;;;;;;6.25;5.25;;;;;;;;5078581;27;51244;-47
2022/04/07 13:46:48;;;;;;;;;6.25;4.50;;;;;;;;5083883;27;51177;-47
2022/04/07 13:49:34;;;;;;;;;5.25;4.00;;;;;;;;5085534;27;51114;-48
2022/04/07 13:52:18;;;;;;;;;11.00;7.00;;;;;;;;5094285;27;51525;-47
2022/04/07 13:55:09;;;;;;;;;6.75;5.50;;;;;;;;5098869;27;51145;-48
2022/04/07 13:57:54;;;;;;;;;5.50;3.50;;;;;;;;5100440;27;51145;-51
2022/04/07 14:00:40;;;;;;;;;9.25;4.75;;;;;;;;5082355;27;51047;-49
2022/04/07 14:03:26;;;;;;;;;2.50;2.50;;;;;;;;5075276;27;51128;-50
2022/04/07 14:06:11;;;;;;;;;7.00;3.25;;;;;;;;5101883;27;51672;-48
2022/04/07 14:09:00;;;;;;;;;8.75;5.00;;;;;;;;5099508;27;51396;-51
2022/04/07 14:11:57;;;;;;;;;3.50;2.50;;;;;;;;5102561;27;51160;-51
2022/04/07 14:14:44;;;;;;;;;6.50;2.50;;;;;;;;5081538;27;51206;-48
2022/04/07 14:17:35;;;;;;;;;2.25;2.00;;;;;;;;5100226;27;51386;-49
2022/04/07 14:20:20;;;;;;;;;2.00;1.00;;;;;;;;5092944;27;51191;-49
2022/04/07 14:23:11;;;;;;;;;3.75;3.25;;;;;;;;5103007;27;51388;-51
2022/04/07 14:25:56;;;;;;;;;5.00;5.00;;;;;;;;5100632;27;51033;-47
2022/04/07 14:28:41;;;;;;;;;4.25;2.50;;;;;;;;5074692;27;51473;-47
2022/04/07 14:31:40;;;;;;;;;4.50;2.00;;;;;;;;5097925;27;51563;-47
2022/04/07 14:34:26;;;;;;;;;2.00;2.00;;;;;;;;5093766;27;51877;-46
2022/04/07 14:37:11;;;;;;;;;2.75;2.00;;;;;;;;5088094;27;51131;-47
2022/04/07 14:39:59;;;;;;;;;2.50;2.50;;;;;;;;5084802;27;51131;-48
2022/04/07 14:42:43;;;;;;;;;6.75;3.25;;;;;;;;5084822;27;51150;-49
2022/04/07 14:45:37;;;;;;;;;4.00;3.00;;;;;;;;5084149;27;51011;-47
2022/04/07 14:48:24;;;;;;;;;8.00;6.50;;;;;;;;5096029;27;51126;-46
2022/04/07 14:51:17;;;;;;;;;6.25;6.25;;;;;;;;5082048;27;51139;-49
2022/04/07 14:54:02;;;;;;;;;5.00;4.00;;;;;;;;5083325;27;51066;-45
2022/04/07 14:56:57;;;;;;;;;4.25;4.25;;;;;;;;5100167;27;51143;-47
2022/04/07 14:59:41;;;;;;;;;6.00;3.00;;;;;;;;5083722;27;51090;-45
2022/04/07 15:02:40;;;;;;;;;3.75;1.75;;;;;;;;5081391;27;52798;-48
2022/04/07 15:05:25;;;;;;;;;5.25;2.25;;;;;;;;5081230;27;51398;-48
2022/04/07 15:08:11;;;;;;;;;7.50;3.25;;;;;;;;5094517;27;51172;-50
2022/04/07 15:10:57;;;;;;;;;3.00;3.00;;;;;;;;5092623;27;51494;-46
2022/04/07 15:13:45;;;;;;;;;3.50;2.75;;;;;;;;5071954;27;51209;-47
2022/04/07 15:16:30;;;;;;;;;3.50;3.50;;;;;;;;5084616;27;51082;-46
2022/04/07 15:19:15;;;;;;;;;4.25;4.25;;;;;;;;5081381;27;51173;-45
2022/04/07 15:22:10;;;;;;;;;4.25;2.00;;;;;;;;5088660;27;51172;-47
2022/04/07 15:25:00;;;;;;;;;3.25;3.00;;;;;;;;5090265;27;51554;-47
2022/04/07 15:27:55;;;;;;;;;4.25;1.25;;;;;;;;5099733;27;51214;-48
2022/04/07 15:30:49;;;;;;;;;3.25;3.25;;;;;;;;5094749;27;51460;-45
2022/04/07 15:33:35;;;;;;;;;5.00;2.75;;;;;;;;5089988;27;51346;-48
2022/04/07 15:36:21;;;;;;;;;3.00;2.00;;;;;;;;5084332;27;51417;-46
2022/04/07 15:39:06;;;;;;;;;5.50;2.75;;;;;;;;5084524;27;51898;-46
2022/04/07 15:41:53;;;;;;;;;5.75;3.00;;;;;;;;5069793;27;51179;-46
2022/04/07 15:44:40;;;;;;;;;4.00;2.75;;;;;;;;5080283;27;51103;-47
2022/04/07 15:47:24;;;;;;;;;5.50;2.75;;;;;;;;5079941;27;51109;-48
2022/04/07 15:50:10;;;;;;;;;4.75;2.00;;;;;;;;5080591;27;51117;-47
2022/04/07 15:53:22;;;;;;;;;5.00;5.00;;;;;;;;5100172;27;51145;-46
2022/04/07 15:56:11;;;;;;;;;9.25;6.00;;;;;;;;5101257;27;51026;-46
2022/04/07 15:58:59;;;;;;;;;8.25;4.50;;;;;;;;5070720;27;51119;-45
2022/04/07 16:01:44;;;;;;;;;6.25;4.25;;;;;;;;5079021;27;51630;-48
2022/04/07 16:04:51;;;;;;;;;7.50;2.50;;;;;;;;5080307;27;51228;-46
2022/04/07 16:07:37;;;;;;;;;6.00;3.00;;;;;;;;5079296;27;51174;-46
2022/04/07 16:10:25;;;;;;;;;5.75;3.50;;;;;;;;5079850;27;51221;-45
2022/04/07 16:13:10;;;;;;;;;3.50;2.25;;;;;;;;5081067;27;51180;-48
2022/04/07 16:16:00;;;;;;;;;4.50;3.25;;;;;;;;5095837;27;51202;-45
2022/04/07 16:18:45;;;;;;;;;9.00;3.00;;;;;;;;5087153;27;51165;-47
2022/04/07 16:21:31;;;;;;;;;9.75;4.75;;;;;;;;5076863;27;51067;-46
2022/04/07 16:24:16;;;;;;;;;5.75;2.00;;;;;;;;5078438;27;51244;-46
2022/04/07 16:27:00;;;;;;;;;8.00;4.00;;;;;;;;5080693;27;51241;-47
2022/04/07 16:29:45;;;;;;;;;2.75;2.00;;;;;;;;5079946;27;51451;-49
2022/04/07 16:32:29;;;;;;;;;5.50;3.00;;;;;;;;5087943;27;51315;-46
2022/04/07 16:35:13;;;;;;;;;4.50;3.00;;;;;;;;5075058;27;51098;-50
2022/04/07 16:37:59;;;;;;;;;4.00;4.00;;;;;;;;5086150;27;51214;-45